Time;durP1;ratioP1;P1;durP2;ratioP2;P2;SDS_P1;SDS_P2;PMS_P1;PMS_P2;Temp;Humidity;BMP_temperature;BMP_pressure;BME280_temperature;BME280_humidity;BME280_pressure;Samples;Min_cycle;Max_cycle;Signal;HPM_P1;HPM_P2
2021/10/15 00:01:38;;;;;;;48.70;22.88;;;;;;;;;;4993236;28;20089;-66
2021/10/15 00:04:04;;;;;;;44.25;21.77;;;;;;;;;;4992853;28;20046;-66
2021/10/15 00:06:29;;;;;;;44.40;22.15;;;;;;;;;;4993220;28;20137;-66
2021/10/15 00:08:54;;;;;;;42.92;19.67;;;;;;;;;;4994025;28;20020;-66
2021/10/15 00:11:19;;;;;;;43.30;20.73;;;;;;;;;;4997433;28;20029;-66
2021/10/15 00:13:45;;;;;;;54.03;24.50;;;;;;;;;;4997425;28;20475;-66
2021/10/15 00:16:10;;;;;;;56.25;23.48;;;;;;;;;;4996906;28;20030;-66
2021/10/15 00:18:35;;;;;;;60.00;26.98;;;;;;;;;;5012508;28;20116;-66
2021/10/15 00:21:01;;;;;;;59.25;25.63;;;;;;;;;;4997509;28;20015;-66
2021/10/15 00:23:26;;;;;;;44.90;21.33;;;;;;;;;;4997136;28;20042;-66
2021/10/15 00:25:51;;;;;;;46.55;21.27;;;;;;;;;;4996829;28;20061;-66
2021/10/15 00:28:16;;;;;;;54.38;25.13;;;;;;;;;;4997497;28;20026;-66
2021/10/15 00:30:42;;;;;;;55.10;24.20;;;;;;;;;;4996837;28;20022;-66
2021/10/15 00:33:07;;;;;;;59.28;25.98;;;;;;;;;;5011972;28;20023;-65
2021/10/15 00:35:32;;;;;;;42.28;23.05;;;;;;;;;;4996871;28;20094;-65
2021/10/15 00:37:57;;;;;;;49.28;23.42;;;;;;;;;;5023114;28;20029;-65
2021/10/15 00:40:23;;;;;;;56.58;26.00;;;;;;;;;;5016544;28;20022;-65
2021/10/15 00:42:48;;;;;;;58.55;27.27;;;;;;;;;;5016209;28;20018;-65
2021/10/15 00:45:14;;;;;;;59.15;25.55;;;;;;;;;;5016224;28;20508;-66
2021/10/15 00:47:40;;;;;;;53.83;25.25;;;;;;;;;;5016386;28;20029;-66
2021/10/15 00:50:06;;;;;;;53.85;24.13;;;;;;;;;;5016328;28;20040;-66
2021/10/15 00:52:31;;;;;;;52.00;25.10;;;;;;;;;;5016228;28;20047;-65
2021/10/15 00:54:56;;;;;;;49.83;23.33;;;;;;;;;;5014472;28;20048;-66
2021/10/15 00:57:22;;;;;;;53.78;24.38;;;;;;;;;;4996430;28;20021;-66
2021/10/15 00:59:48;;;;;;;54.38;25.52;;;;;;;;;;4996523;28;20021;-66
2021/10/15 01:02:13;;;;;;;47.92;23.35;;;;;;;;;;4995992;28;20018;-66
2021/10/15 01:04:39;;;;;;;57.10;26.88;;;;;;;;;;4996137;28;20030;-66
2021/10/15 01:07:04;;;;;;;53.70;23.73;;;;;;;;;;4996228;28;20061;-66
2021/10/15 01:09:33;;;;;;;45.88;24.75;;;;;;;;;;4996324;28;20026;-66
2021/10/15 01:11:59;;;;;;;52.80;24.17;;;;;;;;;;4996001;28;20045;-66
2021/10/15 01:14:25;;;;;;;57.80;25.67;;;;;;;;;;4993553;28;20026;-66
2021/10/15 01:16:50;;;;;;;52.97;24.35;;;;;;;;;;4976583;28;20472;-66
2021/10/15 01:19:15;;;;;;;41.03;21.73;;;;;;;;;;4976638;28;20142;-66
2021/10/15 01:21:40;;;;;;;42.15;20.92;;;;;;;;;;4975796;28;20023;-66
2021/10/15 01:24:06;;;;;;;52.53;23.88;;;;;;;;;;4976496;28;20015;-66
2021/10/15 01:26:31;;;;;;;57.65;24.33;;;;;;;;;;4976284;28;20031;-66
2021/10/15 01:28:57;;;;;;;48.35;24.35;;;;;;;;;;4976311;28;20019;-66
2021/10/15 01:31:23;;;;;;;60.00;23.88;;;;;;;;;;4976485;28;20526;-66
2021/10/15 01:33:49;;;;;;;48.72;24.15;;;;;;;;;;4975711;28;20019;-66
2021/10/15 01:36:15;;;;;;;56.78;25.67;;;;;;;;;;4976301;28;20101;-66
2021/10/15 01:38:40;;;;;;;55.03;25.45;;;;;;;;;;5010542;28;20014;-66
2021/10/15 01:41:06;;;;;;;54.83;25.55;;;;;;;;;;5015308;28;20043;-66
2021/10/15 01:43:31;;;;;;;45.00;23.25;;;;;;;;;;5015393;28;20053;-66
2021/10/15 01:45:57;;;;;;;52.42;23.45;;;;;;;;;;5014870;28;20042;-66
2021/10/15 01:48:23;;;;;;;54.35;23.08;;;;;;;;;;5015164;28;20037;-66
2021/10/15 01:50:48;;;;;;;52.78;23.33;;;;;;;;;;5010720;28;20062;-66
2021/10/15 01:53:14;;;;;;;45.95;22.40;;;;;;;;;;4995604;28;20088;-65
2021/10/15 01:55:39;;;;;;;43.95;22.88;;;;;;;;;;4995616;28;20054;-66
2021/10/15 01:58:05;;;;;;;49.38;24.05;;;;;;;;;;4995287;28;20018;-66
2021/10/15 02:00:30;;;;;;;54.15;24.17;;;;;;;;;;4995613;28;20022;-66
2021/10/15 02:02:55;;;;;;;57.05;23.33;;;;;;;;;;4994538;28;20062;-66
2021/10/15 02:05:21;;;;;;;57.75;24.83;;;;;;;;;;4995337;28;20085;-66
2021/10/15 02:07:46;;;;;;;55.85;23.83;;;;;;;;;;4994880;28;20025;-65
2021/10/15 02:10:13;;;;;;;52.88;23.52;;;;;;;;;;4995356;28;20030;-65
2021/10/15 02:12:38;;;;;;;56.28;24.77;;;;;;;;;;4995100;28;20019;-66
2021/10/15 02:15:04;;;;;;;59.15;26.45;;;;;;;;;;4994959;28;20019;-66
2021/10/15 02:17:30;;;;;;;63.10;27.90;;;;;;;;;;4994850;28;20033;-66
2021/10/15 02:19:55;;;;;;;61.60;26.85;;;;;;;;;;4994565;28;20030;-66
2021/10/15 02:22:20;;;;;;;52.35;25.10;;;;;;;;;;4994945;28;20049;-66
2021/10/15 02:24:45;;;;;;;52.92;23.15;;;;;;;;;;4994611;28;20057;-66
2021/10/15 02:27:11;;;;;;;48.33;23.42;;;;;;;;;;4994961;28;20022;-66
2021/10/15 02:29:36;;;;;;;48.58;23.70;;;;;;;;;;4994652;28;20101;-66
2021/10/15 02:32:01;;;;;;;49.90;22.88;;;;;;;;;;4993932;28;20095;-66
2021/10/15 02:34:26;;;;;;;48.72;23.08;;;;;;;;;;4994780;28;20037;-66
2021/10/15 02:36:52;;;;;;;53.42;24.25;;;;;;;;;;4997109;28;20029;-66
2021/10/15 02:39:17;;;;;;;58.47;25.67;;;;;;;;;;5014305;28;20029;-66
2021/10/15 02:41:43;;;;;;;56.75;24.63;;;;;;;;;;5014062;28;20021;-65
2021/10/15 02:44:09;;;;;;;57.80;25.30;;;;;;;;;;5014296;28;20018;-65
2021/10/15 02:46:35;;;;;;;58.47;25.17;;;;;;;;;;5014210;28;20029;-65
2021/10/15 02:49:01;;;;;;;50.35;23.98;;;;;;;;;;5012860;28;20020;-65
2021/10/15 02:51:26;;;;;;;55.70;25.58;;;;;;;;;;5004951;28;20479;-65
2021/10/15 02:53:51;;;;;;;58.33;24.58;;;;;;;;;;4994258;28;20081;-65
2021/10/15 02:56:17;;;;;;;53.70;24.52;;;;;;;;;;4994568;28;20019;-65
2021/10/15 02:58:42;;;;;;;50.92;24.27;;;;;;;;;;4994051;28;20021;-66
2021/10/15 03:01:07;;;;;;;51.20;25.40;;;;;;;;;;4994284;28;20029;-66
2021/10/15 03:03:32;;;;;;;57.60;25.15;;;;;;;;;;4992036;28;20075;-65
2021/10/15 03:05:58;;;;;;;56.60;24.40;;;;;;;;;;4994331;28;20117;-65
2021/10/15 03:08:23;;;;;;;55.95;24.52;;;;;;;;;;4994157;28;20356;-65
2021/10/15 03:10:48;;;;;;;56.08;24.20;;;;;;;;;;4994252;28;20113;-65
2021/10/15 03:13:14;;;;;;;46.53;23.33;;;;;;;;;;4994396;28;20033;-65
2021/10/15 03:15:39;;;;;;;55.50;25.10;;;;;;;;;;4993921;28;20029;-65
2021/10/15 03:18:04;;;;;;;47.38;22.48;;;;;;;;;;4993668;28;20364;-65
2021/10/15 03:20:30;;;;;;;51.38;23.20;;;;;;;;;;4993763;28;20089;-65
2021/10/15 03:22:55;;;;;;;56.88;24.27;;;;;;;;;;4994016;28;20371;-65
2021/10/15 03:25:20;;;;;;;59.55;25.40;;;;;;;;;;4993722;28;20026;-65
2021/10/15 03:27:45;;;;;;;45.40;21.35;;;;;;;;;;4993800;28;20033;-65
2021/10/15 03:30:11;;;;;;;49.40;23.08;;;;;;;;;;4993733;28;20061;-65
2021/10/15 03:32:36;;;;;;;63.05;25.33;;;;;;;;;;4994211;28;20470;-65
2021/10/15 03:35:01;;;;;;;62.00;25.77;;;;;;;;;;4993576;28;20021;-65
2021/10/15 03:37:27;;;;;;;56.17;24.63;;;;;;;;;;5001020;28;20477;-65
2021/10/15 03:39:52;;;;;;;56.83;23.17;;;;;;;;;;5013136;28;20025;-65
2021/10/15 03:42:18;;;;;;;54.83;22.92;;;;;;;;;;5013296;28;20061;-65
2021/10/15 03:44:44;;;;;;;59.05;23.98;;;;;;;;;;5012265;28;20025;-65
2021/10/15 03:47:09;;;;;;;52.78;23.50;;;;;;;;;;5013123;28;20718;-65
2021/10/15 03:49:34;;;;;;;52.08;23.88;;;;;;;;;;5013112;28;20020;-65
2021/10/15 03:52:00;;;;;;;44.72;20.70;;;;;;;;;;4999219;28;20045;-65
2021/10/15 03:54:25;;;;;;;42.80;19.88;;;;;;;;;;4993299;28;20015;-65
2021/10/15 03:56:50;;;;;;;45.08;21.25;;;;;;;;;;4993641;28;20058;-65
2021/10/15 03:59:16;;;;;;;53.42;22.90;;;;;;;;;;4993265;28;20025;-65
2021/10/15 04:01:41;;;;;;;49.47;22.23;;;;;;;;;;4993331;28;20102;-66
2021/10/15 04:04:06;;;;;;;55.03;21.48;;;;;;;;;;4992531;28;20046;-66
2021/10/15 04:06:31;;;;;;;44.85;21.42;;;;;;;;;;4993551;28;20042;-66
2021/10/15 04:08:57;;;;;;;51.42;20.55;;;;;;;;;;4993295;28;20020;-65
2021/10/15 04:11:22;;;;;;;45.30;21.42;;;;;;;;;;4993420;28;20026;-65
2021/10/15 04:13:47;;;;;;;43.65;20.60;;;;;;;;;;4993427;28;20050;-65
2021/10/15 04:16:13;;;;;;;48.45;22.85;;;;;;;;;;4993020;28;20474;-65
2021/10/15 04:18:38;;;;;;;50.50;22.73;;;;;;;;;;4993137;28;20023;-65
2021/10/15 04:21:03;;;;;;;47.22;20.80;;;;;;;;;;4992971;28;20487;-65
2021/10/15 04:23:28;;;;;;;43.33;21.13;;;;;;;;;;4993522;28;20045;-65
2021/10/15 04:25:54;;;;;;;44.08;21.33;;;;;;;;;;4992881;28;20030;-65
2021/10/15 04:28:19;;;;;;;50.17;22.52;;;;;;;;;;4993017;28;20468;-65
2021/10/15 04:30:45;;;;;;;48.10;22.00;;;;;;;;;;4991769;28;20022;-65
2021/10/15 04:33:10;;;;;;;46.90;21.38;;;;;;;;;;5007806;28;20030;-65
2021/10/15 04:35:35;;;;;;;45.13;21.05;;;;;;;;;;4993143;28;20423;-65
2021/10/15 04:38:01;;;;;;;47.25;22.48;;;;;;;;;;5004435;28;20018;-65
2021/10/15 04:40:26;;;;;;;49.13;22.65;;;;;;;;;;5012750;28;20029;-65
2021/10/15 04:42:51;;;;;;;48.08;21.88;;;;;;;;;;5012506;28;20021;-65
2021/10/15 04:45:16;;;;;;;49.47;22.55;;;;;;;;;;5012303;28;20497;-65
2021/10/15 04:47:42;;;;;;;47.22;23.33;;;;;;;;;;5011503;28;20026;-65
2021/10/15 04:50:08;;;;;;;47.63;21.17;;;;;;;;;;5012027;28;20022;-65
2021/10/15 04:52:33;;;;;;;51.58;22.83;;;;;;;;;;4994587;28;20022;-65
2021/10/15 04:54:58;;;;;;;54.47;23.80;;;;;;;;;;4993173;28;20014;-65
2021/10/15 04:57:24;;;;;;;54.25;21.30;;;;;;;;;;4996847;28;20053;-65
2021/10/15 04:59:49;;;;;;;55.13;23.10;;;;;;;;;;4996056;28;20426;-65
2021/10/15 05:02:14;;;;;;;48.88;22.65;;;;;;;;;;4996377;28;20030;-65
2021/10/15 05:04:41;;;;;;;48.28;23.67;;;;;;;;;;4994511;28;20104;-66
2021/10/15 05:07:06;;;;;;;52.80;21.30;;;;;;;;;;4996364;28;20117;-66
2021/10/15 05:11:57;;;;;;;37.05;19.17;;;;;;;;;;4996065;28;20479;-66
2021/10/15 05:14:22;;;;;;;45.60;20.48;;;;;;;;;;4996287;28;20578;-65
2021/10/15 05:16:48;;;;;;;52.70;21.48;;;;;;;;;;4996073;28;20022;-65
2021/10/15 05:19:13;;;;;;;40.75;19.08;;;;;;;;;;4996350;28;20018;-65
2021/10/15 05:21:39;;;;;;;58.22;25.45;;;;;;;;;;4996199;28;20019;-65
2021/10/15 05:24:04;;;;;;;64.50;27.20;;;;;;;;;;4995877;28;20061;-65
2021/10/15 05:26:29;;;;;;;80.53;25.48;;;;;;;;;;4996058;28;20081;-65
2021/10/15 05:28:54;;;;;;;66.82;27.35;;;;;;;;;;4995970;28;20489;-65
2021/10/15 05:31:20;;;;;;;94.28;28.15;;;;;;;;;;4996417;28;20023;-65
2021/10/15 05:33:45;;;;;;;80.90;26.15;;;;;;;;;;4995432;28;20065;-65
2021/10/15 05:36:10;;;;;;;71.68;26.27;;;;;;;;;;4995564;28;20360;-65
2021/10/15 05:38:35;;;;;;;80.50;31.13;;;;;;;;;;4990714;28;20054;-65
2021/10/15 05:41:01;;;;;;;87.18;29.48;;;;;;;;;;4986749;28;20019;-65
2021/10/15 05:43:26;;;;;;;70.82;29.55;;;;;;;;;;4995394;28;20026;-66
2021/10/15 05:45:51;;;;;;;86.70;29.90;;;;;;;;;;4994198;28;20033;-66
2021/10/15 05:48:17;;;;;;;82.38;33.67;;;;;;;;;;4994908;28;20618;-66
2021/10/15 05:50:42;;;;;;;107.13;39.50;;;;;;;;;;4993892;28;20021;-66
2021/10/15 05:53:11;;;;;;;85.22;36.00;;;;;;;;;;4990182;28;20022;-66
2021/10/15 06:00:45;;;;;;;92.68;35.97;;;;;;;;;;4994829;28;20080;-66
2021/10/15 06:03:11;;;;;;;74.10;30.75;;;;;;;;;;4986372;28;20070;-66
2021/10/15 06:16:13;;;;;;;92.75;34.08;;;;;;;;;;4989322;28;20088;-67
2021/10/15 06:18:40;;;;;;;98.22;34.97;;;;;;;;;;4984100;28;20072;-65
2021/10/15 06:21:06;;;;;;;95.50;35.08;;;;;;;;;;4993634;28;20066;-66
2021/10/15 06:23:32;;;;;;;83.15;33.10;;;;;;;;;;4993355;28;20049;-67
2021/10/15 06:25:58;;;;;;;80.00;34.42;;;;;;;;;;4975707;28;20074;-65
2021/10/15 06:28:23;;;;;;;76.10;32.67;;;;;;;;;;4981300;28;20468;-67
2021/10/15 06:30:49;;;;;;;71.10;31.60;;;;;;;;;;4988254;28;20031;-68
2021/10/15 06:33:15;;;;;;;77.90;32.42;;;;;;;;;;4991504;28;20057;-67
2021/10/15 06:35:40;;;;;;;74.55;30.38;;;;;;;;;;4993702;28;20042;-67
2021/10/15 06:38:07;;;;;;;69.82;29.92;;;;;;;;;;4990837;28;20030;-65
2021/10/15 06:40:32;;;;;;;67.45;30.85;;;;;;;;;;4983665;28;20037;-67
2021/10/15 06:42:58;;;;;;;60.58;30.13;;;;;;;;;;4981766;28;20387;-66
2021/10/15 06:45:23;;;;;;;53.95;29.45;;;;;;;;;;4991989;28;20101;-66
2021/10/15 06:47:48;;;;;;;52.20;28.00;;;;;;;;;;4991773;28;20026;-64
2021/10/15 06:50:13;;;;;;;49.53;25.48;;;;;;;;;;4989948;28;20064;-66
2021/10/15 06:52:48;;;;;;;55.40;29.42;;;;;;;;;;4991741;28;20089;-69
2021/10/15 06:55:15;;;;;;;48.25;26.40;;;;;;;;;;4989854;28;20019;-65
2021/10/15 06:57:40;;;;;;;49.70;25.15;;;;;;;;;;4990659;28;20438;-60
2021/10/15 07:00:06;;;;;;;45.45;25.65;;;;;;;;;;4992372;28;20018;-66
2021/10/15 07:02:31;;;;;;;49.17;25.33;;;;;;;;;;4998670;28;20009;-68
2021/10/15 07:04:57;;;;;;;35.53;21.57;;;;;;;;;;4991001;28;20466;-65
2021/10/15 07:07:22;;;;;;;37.33;23.35;;;;;;;;;;4984383;28;20280;-67
2021/10/15 07:09:47;;;;;;;43.63;22.45;;;;;;;;;;4987029;28;20034;-64
2021/10/15 07:12:13;;;;;;;39.50;21.20;;;;;;;;;;4990899;28;20088;-62
2021/10/15 07:14:38;;;;;;;35.25;19.42;;;;;;;;;;4992852;28;20636;-63
2021/10/15 07:17:03;;;;;;;34.25;18.95;;;;;;;;;;4991872;28;20487;-64
2021/10/15 07:19:29;;;;;;;32.47;17.57;;;;;;;;;;4991327;28;20018;-64
2021/10/15 07:21:54;;;;;;;30.17;17.47;;;;;;;;;;4992139;28;20671;-64
2021/10/15 07:24:19;;;;;;;28.07;14.90;;;;;;;;;;4991376;28;20336;-64
2021/10/15 07:26:45;;;;;;;23.10;14.25;;;;;;;;;;4979648;28;20299;-65
2021/10/15 07:29:10;;;;;;;29.03;16.50;;;;;;;;;;4979576;28;20102;-65
2021/10/15 07:31:35;;;;;;;27.70;16.63;;;;;;;;;;4989708;28;20287;-63
2021/10/15 07:34:01;;;;;;;25.02;16.00;;;;;;;;;;4992443;28;20046;-64
2021/10/15 07:36:26;;;;;;;29.73;16.88;;;;;;;;;;4992539;28;20023;-64
2021/10/15 07:38:52;;;;;;;29.67;18.50;;;;;;;;;;4992192;28;20076;-65
2021/10/15 07:41:17;;;;;;;29.27;16.00;;;;;;;;;;4992189;28;20022;-64
2021/10/15 07:43:43;;;;;;;32.90;20.55;;;;;;;;;;4986107;28;20272;-64
2021/10/15 07:46:08;;;;;;;28.25;18.15;;;;;;;;;;4991851;28;20041;-65
2021/10/15 07:48:33;;;;;;;26.50;17.67;;;;;;;;;;4991609;28;20030;-66
2021/10/15 07:50:59;;;;;;;30.50;19.48;;;;;;;;;;4991631;28;20791;-65
2021/10/15 07:53:25;;;;;;;30.33;19.40;;;;;;;;;;4991940;28;20694;-65
2021/10/15 07:55:50;;;;;;;28.55;17.38;;;;;;;;;;4991516;28;20141;-64
2021/10/15 07:58:15;;;;;;;27.50;15.80;;;;;;;;;;4990838;28;20087;-66
2021/10/15 08:00:41;;;;;;;18.85;14.35;;;;;;;;;;4992560;28;20026;-66
2021/10/15 08:03:07;;;;;;;23.95;13.32;;;;;;;;;;4989992;28;20057;-64
2021/10/15 08:05:32;;;;;;;19.95;14.10;;;;;;;;;;4992826;28;20105;-65
2021/10/15 08:07:57;;;;;;;20.60;13.83;;;;;;;;;;4984910;28;20447;-66
2021/10/15 08:10:23;;;;;;;20.98;13.27;;;;;;;;;;4984963;28;20264;-66
2021/10/15 08:12:48;;;;;;;18.40;12.77;;;;;;;;;;4990737;28;20049;-67
2021/10/15 08:15:14;;;;;;;22.70;13.70;;;;;;;;;;4981983;28;20479;-68
2021/10/15 08:17:39;;;;;;;18.52;12.00;;;;;;;;;;4982205;28;20360;-68
2021/10/15 08:20:05;;;;;;;18.50;13.23;;;;;;;;;;4984980;28;20038;-66
2021/10/15 08:22:30;;;;;;;49.63;15.93;;;;;;;;;;4991010;28;20029;-69
2021/10/15 08:24:56;;;;;;;18.42;12.23;;;;;;;;;;4984472;28;20027;-67
2021/10/15 08:27:21;;;;;;;19.50;13.52;;;;;;;;;;4990585;28;20102;-68
2021/10/15 08:29:46;;;;;;;23.10;13.15;;;;;;;;;;4990932;28;20018;-68
2021/10/15 08:32:12;;;;;;;15.18;10.93;;;;;;;;;;4994559;28;20069;-68
2021/10/15 08:34:37;;;;;;;17.70;13.18;;;;;;;;;;4995385;28;20076;-70
2021/10/15 08:37:03;;;;;;;17.77;12.23;;;;;;;;;;4994951;28;20097;-69
2021/10/15 08:39:29;;;;;;;19.13;12.82;;;;;;;;;;4995011;28;20069;-69
2021/10/15 08:41:55;;;;;;;16.73;12.65;;;;;;;;;;4995251;28;20022;-70
2021/10/15 08:44:20;;;;;;;16.05;11.45;;;;;;;;;;4994351;28;20092;-70
2021/10/15 08:46:46;;;;;;;16.73;11.70;;;;;;;;;;4994400;28;20038;-69
2021/10/15 08:49:11;;;;;;;18.05;11.93;;;;;;;;;;4988259;28;20474;-69
2021/10/15 08:51:40;;;;;;;16.63;12.55;;;;;;;;;;4990163;28;20017;-68
2021/10/15 08:54:05;;;;;;;16.73;12.48;;;;;;;;;;4980251;28;20053;-68
2021/10/15 08:56:31;;;;;;;15.68;10.70;;;;;;;;;;4992640;28;20057;-70
2021/10/15 08:58:57;;;;;;;14.68;11.07;;;;;;;;;;4994497;28;20466;-68
2021/10/15 09:01:27;;;;;;;15.35;10.80;;;;;;;;;;4992728;28;20049;-70
2021/10/15 09:04:03;;;;;;;15.07;11.13;;;;;;;;;;4993000;28;20053;-67
2021/10/15 09:06:33;;;;;;;12.88;9.88;;;;;;;;;;4994175;28;20073;-70
2021/10/15 09:08:59;;;;;;;16.38;10.50;;;;;;;;;;4994081;28;20019;-67
2021/10/15 09:11:27;;;;;;;13.17;9.17;;;;;;;;;;4993072;28;20041;-67
2021/10/15 09:14:22;;;;;;;13.23;9.93;;;;;;;;;;4992175;28;20287;-69
2021/10/15 09:17:10;;;;;;;13.98;9.88;;;;;;;;;;4975022;28;20039;-69
2021/10/15 09:19:42;;;;;;;16.83;10.98;;;;;;;;;;4986627;28;20089;-69
2021/10/15 09:22:11;;;;;;;17.08;11.20;;;;;;;;;;4992603;28;20386;-69
2021/10/15 09:24:40;;;;;;;16.00;12.10;;;;;;;;;;4991997;28;20656;-69
2021/10/15 09:27:18;;;;;;;13.85;10.25;;;;;;;;;;4994395;28;20027;-61
2021/10/15 09:29:48;;;;;;;13.63;10.65;;;;;;;;;;4989919;28;20018;-61
2021/10/15 09:32:13;;;;;;;12.10;9.65;;;;;;;;;;4991347;28;20110;-68
2021/10/15 09:34:39;;;;;;;13.20;8.55;;;;;;;;;;4992992;28;20114;-70
2021/10/15 09:37:24;;;;;;;14.90;10.05;;;;;;;;;;4993913;28;20014;-69
2021/10/15 09:39:50;;;;;;;16.48;10.13;;;;;;;;;;4992312;28;20030;-69
2021/10/15 09:42:24;;;;;;;10.13;8.45;;;;;;;;;;4989165;28;20030;-68
2021/10/15 09:44:49;;;;;;;10.63;8.13;;;;;;;;;;4987761;28;20042;-69
2021/10/15 09:47:17;;;;;;;13.57;9.63;;;;;;;;;;4986661;28;20468;-68
2021/10/15 09:49:46;;;;;;;13.63;9.45;;;;;;;;;;4986321;28;20057;-68
2021/10/15 09:52:21;;;;;;;10.00;7.50;;;;;;;;;;4989774;28;20103;-67
2021/10/15 09:54:53;;;;;;;10.95;8.63;;;;;;;;;;4978232;28;20119;-64
2021/10/15 09:57:26;;;;;;;12.55;9.07;;;;;;;;;;4984306;28;20097;-64
2021/10/15 09:59:51;;;;;;;8.85;6.80;;;;;;;;;;4990141;28;20022;-63
2021/10/15 10:02:17;;;;;;;10.10;8.63;;;;;;;;;;4990388;28;20437;-64
2021/10/15 10:04:42;;;;;;;11.68;7.93;;;;;;;;;;4982974;28;20074;-65
2021/10/15 10:07:08;;;;;;;9.63;7.97;;;;;;;;;;4993592;28;20030;-64
2021/10/15 10:09:33;;;;;;;13.90;9.70;;;;;;;;;;4994184;28;20026;-64
2021/10/15 10:11:59;;;;;;;11.93;9.52;;;;;;;;;;4993904;28;20014;-66
2021/10/15 10:14:24;;;;;;;10.45;8.20;;;;;;;;;;4994490;28;20033;-64
2021/10/15 10:16:51;;;;;;;12.27;9.23;;;;;;;;;;4994322;28;20018;-64
2021/10/15 10:19:17;;;;;;;12.05;8.90;;;;;;;;;;4993945;28;20256;-63
2021/10/15 10:21:43;;;;;;;12.90;9.32;;;;;;;;;;4994255;28;20471;-65
2021/10/15 10:24:12;;;;;;;13.07;8.85;;;;;;;;;;4993757;28;20026;-64
2021/10/15 10:26:44;;;;;;;11.52;8.93;;;;;;;;;;4996215;28;20023;-64
2021/10/15 10:29:10;;;;;;;10.95;9.07;;;;;;;;;;5000014;28;20031;-64
2021/10/15 10:31:35;;;;;;;10.25;7.85;;;;;;;;;;4987435;28;20117;-64
2021/10/15 10:34:02;;;;;;;12.65;8.50;;;;;;;;;;4977383;28;20081;-65
2021/10/15 10:36:28;;;;;;;10.90;8.93;;;;;;;;;;4974533;28;20019;-64
2021/10/15 10:38:53;;;;;;;11.18;8.60;;;;;;;;;;5011544;28;20018;-65
2021/10/15 10:41:27;;;;;;;10.85;8.73;;;;;;;;;;4996721;28;20023;-64
2021/10/15 10:43:52;;;;;;;10.77;8.48;;;;;;;;;;4980147;28;20030;-65
2021/10/15 10:46:19;;;;;;;11.70;8.47;;;;;;;;;;5004111;28;20076;-65
2021/10/15 10:48:50;;;;;;;13.10;9.55;;;;;;;;;;5006433;28;20267;-66
2021/10/15 10:51:25;;;;;;;11.85;8.57;;;;;;;;;;4992165;28;20502;-65
2021/10/15 10:54:03;;;;;;;14.15;8.52;;;;;;;;;;4990676;28;20023;-65
2021/10/15 10:56:51;;;;;;;13.52;9.32;;;;;;;;;;4989257;28;20076;-66
2021/10/15 10:59:16;;;;;;;13.45;9.40;;;;;;;;;;4988764;28;20076;-65
2021/10/15 11:01:48;;;;;;;16.08;9.07;;;;;;;;;;4992573;28;20426;-66
2021/10/15 11:04:26;;;;;;;17.75;9.73;;;;;;;;;;4976899;28;20050;-65
2021/10/15 11:06:57;;;;;;;14.43;8.57;;;;;;;;;;4977729;28;20027;-65
2021/10/15 11:09:37;;;;;;;14.07;8.95;;;;;;;;;;4979495;28;20023;-66
2021/10/15 11:12:03;;;;;;;11.98;8.75;;;;;;;;;;4973048;28;20026;-64
2021/10/15 11:14:47;;;;;;;11.35;9.07;;;;;;;;;;4977637;28;20018;-64
2021/10/15 11:17:13;;;;;;;12.85;9.30;;;;;;;;;;4988300;28;20399;-64
2021/10/15 11:19:38;;;;;;;47.58;11.13;;;;;;;;;;4982818;28;20034;-66
2021/10/15 11:22:03;;;;;;;10.75;8.43;;;;;;;;;;4982102;28;20019;-66
2021/10/15 11:24:28;;;;;;;12.40;8.60;;;;;;;;;;4993060;28;20034;-65
2021/10/15 11:26:55;;;;;;;10.13;6.80;;;;;;;;;;4988442;28;20280;-65
2021/10/15 11:29:20;;;;;;;11.05;8.10;;;;;;;;;;4975910;28;20037;-65
2021/10/15 11:31:56;;;;;;;12.35;8.38;;;;;;;;;;4971602;28;20031;-65
2021/10/15 11:34:21;;;;;;;12.05;8.25;;;;;;;;;;4973274;28;20022;-63
2021/10/15 11:36:47;;;;;;;14.23;8.43;;;;;;;;;;4977180;28;20464;-65
2021/10/15 11:39:12;;;;;;;9.98;7.32;;;;;;;;;;5011221;28;20479;-65
2021/10/15 11:41:47;;;;;;;12.95;8.88;;;;;;;;;;5012503;28;20026;-64
2021/10/15 11:44:12;;;;;;;13.00;8.63;;;;;;;;;;5004456;28;20017;-64
2021/10/15 11:46:37;;;;;;;12.85;8.18;;;;;;;;;;4992613;28;20035;-65
2021/10/15 11:49:03;;;;;;;10.65;7.78;;;;;;;;;;4992468;28;20037;-64
2021/10/15 11:51:28;;;;;;;9.75;6.88;;;;;;;;;;4991755;28;20096;-65
2021/10/15 11:53:54;;;;;;;12.18;7.53;;;;;;;;;;4990682;28;20150;-64
2021/10/15 11:56:21;;;;;;;11.02;7.45;;;;;;;;;;4990905;28;20513;-64
2021/10/15 11:58:49;;;;;;;11.50;8.70;;;;;;;;;;4991973;28;20363;-64
2021/10/15 12:01:16;;;;;;;9.13;6.97;;;;;;;;;;4992438;28;20360;-64
2021/10/15 12:03:44;;;;;;;11.85;6.95;;;;;;;;;;4990566;28;20046;-64
2021/10/15 12:06:13;;;;;;;9.33;7.27;;;;;;;;;;4993664;28;20742;-64
2021/10/15 12:08:38;;;;;;;14.80;7.77;;;;;;;;;;4995360;28;20015;-65
2021/10/15 12:11:05;;;;;;;9.80;6.72;;;;;;;;;;4995035;28;20018;-63
2021/10/15 12:13:31;;;;;;;11.20;7.53;;;;;;;;;;4996089;28;20026;-65
2021/10/15 12:15:56;;;;;;;12.10;7.38;;;;;;;;;;4994245;28;20018;-65
2021/10/15 12:18:28;;;;;;;10.63;7.93;;;;;;;;;;4996999;28;20470;-65
2021/10/15 12:20:53;;;;;;;12.55;9.00;;;;;;;;;;4993608;28;20270;-65
2021/10/15 12:23:18;;;;;;;12.57;9.02;;;;;;;;;;4986421;28;20026;-65
2021/10/15 12:25:43;;;;;;;15.00;9.40;;;;;;;;;;4987295;28;20081;-65
2021/10/15 12:28:12;;;;;;;14.00;8.50;;;;;;;;;;4989579;28;21370;-66
2021/10/15 12:30:38;;;;;;;11.70;7.93;;;;;;;;;;4993650;28;20307;-67
2021/10/15 12:33:09;;;;;;;11.32;7.22;;;;;;;;;;4991757;28;20038;-63
2021/10/15 12:35:35;;;;;;;24.75;11.23;;;;;;;;;;4988279;28;20026;-64
2021/10/15 12:38:00;;;;;;;36.75;14.73;;;;;;;;;;5008069;28;20044;-63
2021/10/15 12:40:32;;;;;;;11.85;7.13;;;;;;;;;;4988384;28;20030;-65
2021/10/15 12:42:57;;;;;;;10.57;7.75;;;;;;;;;;4995581;28;20054;-66
2021/10/15 12:45:24;;;;;;;11.30;7.23;;;;;;;;;;4986576;28;20446;-68
2021/10/15 12:47:54;;;;;;;12.63;7.50;;;;;;;;;;4994546;28;20045;-63
2021/10/15 12:50:19;;;;;;;11.07;7.93;;;;;;;;;;4991222;28;20364;-64
2021/10/15 12:52:44;;;;;;;12.02;8.52;;;;;;;;;;4991744;28;20030;-63
2021/10/15 12:55:14;;;;;;;10.20;6.95;;;;;;;;;;4988208;28;20015;-65
2021/10/15 12:57:39;;;;;;;25.40;10.40;;;;;;;;;;4987604;28;20090;-64
2021/10/15 13:00:15;;;;;;;22.33;10.57;;;;;;;;;;4988341;28;20014;-64
2021/10/15 13:02:41;;;;;;;24.17;9.23;;;;;;;;;;4986960;28;20030;-64
2021/10/15 13:05:08;;;;;;;8.95;6.50;;;;;;;;;;4986357;28;20029;-63
2021/10/15 13:07:34;;;;;;;11.38;7.85;;;;;;;;;;4987695;28;20684;-63
2021/10/15 13:10:10;;;;;;;16.58;8.32;;;;;;;;;;4994504;28;20025;-63
2021/10/15 13:12:36;;;;;;;16.48;7.80;;;;;;;;;;4990095;28;20043;-63
2021/10/15 13:15:01;;;;;;;9.80;7.00;;;;;;;;;;4987069;28;20029;-64
2021/10/15 13:17:26;;;;;;;12.55;6.47;;;;;;;;;;4991322;28;20651;-63
2021/10/15 13:19:53;;;;;;;10.80;6.40;;;;;;;;;;4988549;28;20026;-63
2021/10/15 13:22:19;;;;;;;10.85;6.90;;;;;;;;;;4978277;28;20029;-64
2021/10/15 13:24:44;;;;;;;12.90;6.93;;;;;;;;;;4994431;28;20022;-63
2021/10/15 13:27:09;;;;;;;9.15;5.70;;;;;;;;;;4982212;28;20077;-63
2021/10/15 13:30:54;;;;;;;9.60;6.10;;;;;;;;;;5120427;27;20381;-71
2021/10/15 13:33:20;;;;;;;9.05;5.50;;;;;;;;;;5127046;27;20373;-74
2021/10/15 13:35:48;;;;;;;10.38;5.95;;;;;;;;;;5125097;28;20028;-72
2021/10/15 13:38:22;;;;;;;11.90;6.13;;;;;;;;;;5117500;28;20374;-73
2021/10/15 13:41:04;;;;;;;12.73;7.65;;;;;;;;;;5129046;28;20018;-73
2021/10/15 13:46:27;;;;;;;9.45;6.38;;;;;;;;;;5130904;28;20039;-73
2021/10/15 13:51:37;;;;;;;7.65;5.20;;;;;;;;;;5129387;28;20042;-72
2021/10/15 13:54:03;;;;;;;8.57;5.93;;;;;;;;;;5129180;27;20098;-73
2021/10/15 13:56:28;;;;;;;7.80;5.75;;;;;;;;;;5128097;28;20114;-73
2021/10/15 13:59:01;;;;;;;7.88;5.00;;;;;;;;;;5129235;27;20051;-74
2021/10/15 14:01:34;;;;;;;8.48;5.43;;;;;;;;;;5115823;28;20110;-74
2021/10/15 14:06:25;;;;;;;7.43;5.43;;;;;;;;;;5150392;27;20034;-74
2021/10/15 14:08:50;;;;;;;9.02;6.28;;;;;;;;;;5150561;27;20282;-73
2021/10/15 14:11:17;;;;;;;9.23;5.93;;;;;;;;;;5151327;27;20022;-73
2021/10/15 14:13:43;;;;;;;8.98;5.68;;;;;;;;;;5132676;27;20467;-73
2021/10/15 14:16:08;;;;;;;9.63;6.27;;;;;;;;;;5151001;27;20030;-73
2021/10/15 14:18:33;;;;;;;8.02;5.85;;;;;;;;;;5151005;27;20723;-74
2021/10/15 14:20:59;;;;;;;9.47;5.13;;;;;;;;;;5151017;27;20030;-73
2021/10/15 14:23:25;;;;;;;7.95;5.18;;;;;;;;;;5150965;27;20255;-73
2021/10/15 14:25:50;;;;;;;9.07;5.72;;;;;;;;;;5151197;27;20015;-73
2021/10/15 14:28:15;;;;;;;7.68;5.20;;;;;;;;;;5150894;27;20015;-73
2021/10/15 14:30:41;;;;;;;7.70;6.00;;;;;;;;;;5132197;27;20107;-73
2021/10/15 14:33:06;;;;;;;7.93;5.03;;;;;;;;;;5150519;27;20049;-74
2021/10/15 14:35:31;;;;;;;9.82;5.75;;;;;;;;;;5132831;27;20027;-73
2021/10/15 14:37:57;;;;;;;9.05;5.75;;;;;;;;;;5150631;27;20413;-74
2021/10/15 14:40:22;;;;;;;8.23;5.57;;;;;;;;;;5128818;28;20011;-74
2021/10/15 14:42:47;;;;;;;7.20;5.45;;;;;;;;;;5136825;27;20231;-74
2021/10/15 14:45:14;;;;;;;6.63;5.00;;;;;;;;;;5118340;27;20019;-73
2021/10/15 14:47:39;;;;;;;8.27;5.28;;;;;;;;;;5136619;27;20015;-73